Costa Pacifica — ICJA — position and weather

sailwx.info

Track history (hours):
 
Tides and Currents Weather Stations Pressure Air Temp Water Temp Dewpoint Dewpoint Depression Visibility Wind Speed Wind Dir Waves Ship Positions

Costa Pacifica

Last reported at 2019-Sep-17 07:58 UTC. Time now 2019-Sep-17 08:19 UTC.
Position N 41°11' W 008°42'.

Length 290 m; draft 8.3 m.

Type: Ship. MMSI: 247258100.

Date/timePositionNaut miles runAvg speedWind from/ knotsBaromVisibWave heightAir tempDewpointWater temp
2019-Sep-17 07:58N 41°11' W 008°42'0 0.0
2019-Sep-17 07:28N 41°11' W 008°42'0 0.0
2019-Sep-17 07:01N 41°11' W 008°42'0 0.3
2019-Sep-17 06:30N 41°11' W 008°42'2 4.0
2019-Sep-17 06:00N 41°10' W 008°44'137 5.4
2019-Sep-16 04:24N 43°27' W 008°30'5317.6
2019-Sep-16 01:23N 44°18' W 008°13'11120.0
2019-Sep-15 19:50N 46°03' W 007°20'619.8
2019-Sep-15 19:30N 46°09' W 007°17'816.2
2019-Sep-15 19:00N 46°17' W 007°13'816.2
2019-Sep-15 18:30N 46°25' W 007°09'816.3
2019-Sep-15 18:00N 46°32' W 007°05'816.4
2019-Sep-15 17:30N 46°40' W 007°01'816.0
2019-Sep-15 16:58N 46°48' W 006°57'815.7
2019-Sep-15 16:28N 46°55' W 006°53'715.9
2019-Sep-15 16:00N 47°02' W 006°49'816.1
2019-Sep-15 15:30N 47°10' W 006°45'815.9
2019-Sep-15 15:00N 47°17' W 006°41'815.2
2019-Sep-15 14:30N 47°24' W 006°36'714.9
2019-Sep-15 14:00N 47°31' W 006°31'714.7
2019-Sep-15 13:30N 47°38' W 006°29'714.4
2019-Sep-15 13:01N 47°45' W 006°26'918.7
2019-Sep-15 12:31N 47°54' W 006°22'1019.5
2019-Sep-15 12:00N 48°03' W 006°17'1019.9
2019-Sep-15 11:30N 48°13' W 006°12'1020.6
2019-Sep-15 11:01N 48°22' W 006°07'1020.8
2019-Sep-15 10:31N 48°32' W 006°02'1121.1
2019-Sep-15 10:01N 48°42' W 005°56'1121.3
2019-Sep-15 09:31N 48°51' W 005°48'1020.3
2019-Sep-15 09:01N 48°57' W 005°35'1020.4
2019-Sep-15 08:30N 49°02' W 005°22'1019.8
2019-Sep-15 08:00N 49°07' W 005°09'917.2
2019-Sep-15 07:30N 49°11' W 004°57'815.4
2019-Sep-15 07:01N 49°15' W 004°47'715.0
2019-Sep-15 06:31N 49°19' W 004°37'714.7
2019-Sep-15 06:01N 49°23' W 004°28'714.5
2019-Sep-15 05:30N 49°26' W 004°18'714.9
2019-Sep-15 05:00N 49°30' W 004°08'815.1
2019-Sep-15 04:30N 49°34' W 003°58'815.5
2019-Sep-15 04:00N 49°38' W 003°48'816.1
2019-Sep-15 03:30N 49°43' W 003°38'816.7
2019-Sep-15 03:00N 49°47' W 003°27'917.5
2019-Sep-15 02:30N 49°51' W 003°14'918.1
2019-Sep-15 02:01N 49°55' W 003°02'918.5
2019-Sep-15 01:30N 49°59' W 002°49'918.6
2019-Sep-15 01:00N 50°02' W 002°35'917.6
2019-Sep-15 00:30N 50°03' W 002°22'917.5
2019-Sep-15 00:00N 50°00' W 002°08'816.8
2019-Sep-14 23:30N 49°58' W 001°56'815.9
2019-Sep-14 23:01N 49°56' W 001°44'815.3
2019-Sep-14 22:30N 49°54' W 001°33'714.6
2019-Sep-14 22:00N 49°51' W 001°22'713.9
2019-Sep-14 21:30N 49°48' W 001°12'713.3
2019-Sep-14 21:00N 49°46' W 001°02'713.6
2019-Sep-14 20:30N 49°44' W 000°53'713.6
2019-Sep-14 20:00N 49°41' W 000°43'713.8
2019-Sep-14 19:30N 49°39' W 000°33'714.1
2019-Sep-14 19:00N 49°35' W 000°24'714.7
2019-Sep-14 18:30N 49°32' W 000°13'713.3
2019-Sep-14 18:00N 49°31' W 000°03'612.3
2019-Sep-14 17:31N 49°29' E 000°06'0 0.6
2019-Sep-14 16:58N 49°29' E 000°06'0 0.0
2019-Sep-14 16:28N 49°29' E 000°06'0 0.0
2019-Sep-14 15:58N 49°29' E 000°06'0 0.0
2019-Sep-14 15:28N 49°29' E 000°06'0 0.0
2019-Sep-14 15:00N 49°29' E 000°06'0 0.0
2019-Sep-14 14:30N 49°29' E 000°06'0 0.0
2019-Sep-14 14:00N 49°29' E 000°06'0 0.0
2019-Sep-14 13:30N 49°29' E 000°06'0 0.0
2019-Sep-14 13:00N 49°29' E 000°06'0 0.0
2019-Sep-14 12:29N 49°29' E 000°06'0 0.0
2019-Sep-14 11:59N 49°29' E 000°06'0 0.0
2019-Sep-14 11:29N 49°29' E 000°06'0 0.0
2019-Sep-14 10:59N 49°29' E 000°06'0 0.0
2019-Sep-14 10:28N 49°29' E 000°06'0 0.0
2019-Sep-14 09:58N 49°29' E 000°06'0 0.0
2019-Sep-14 09:28N 49°29' E 000°06'0 0.0
2019-Sep-14 08:58N 49°29' E 000°06'0 0.0
2019-Sep-14 08:28N 49°29' E 000°06'0 0.0
2019-Sep-14 08:00N 49°29' E 000°06'0 0.0
2019-Sep-14 07:30N 49°29' E 000°06'0 0.0
2019-Sep-14 07:00N 49°29' E 000°06'0 0.0
2019-Sep-14 06:30N 49°29' E 000°06'0 0.0
2019-Sep-14 06:00N 49°29' E 000°06'1 1.0
2019-Sep-14 05:31N 49°29' E 000°07'3 6.4
2019-Sep-14 05:00N 49°30' E 000°02'612.6
2019-Sep-14 04:30N 49°31' W 000°07'611.6
2019-Sep-14 04:00N 49°36' W 000°12'715.0
2019-Sep-14 03:30N 49°43' W 000°15'714.5
2019-Sep-14 03:00N 49°51' W 000°13'815.0
2019-Sep-14 02:30N 49°58' W 000°10'714.8
2019-Sep-14 02:01N 50°05' W 000°09'713.8
2019-Sep-14 01:30N 50°12' W 000°12'713.8
2019-Sep-14 01:00N 50°19' W 000°13'815.2
2019-Sep-14 00:30N 50°25' W 000°06'815.2
2019-Sep-14 00:00N 50°29' E 000°05'815.4
2019-Sep-13 23:30N 50°31' E 000°16'814.7
2019-Sep-13 22:59N 50°34' E 000°27'714.3
2019-Sep-13 22:28N 50°38' E 000°37'914.0
2019-Sep-13 21:51N 50°43' E 000°48'614.1
2019-Sep-13 21:24N 50°47' E 000°56'614.3
2019-Sep-13 21:00N 50°51' E 001°02'815.2
2019-Sep-13 20:30N 50°56' E 001°11'816.1
2019-Sep-13 20:00N 51°02' E 001°21'510.4
2019-Sep-13 19:30N 51°07' E 001°20'0 0.6
2019-Sep-13 19:00N 51°07' E 001°19'0 0.0
2019-Sep-13 18:30N 51°07' E 001°19'0 0.0
2019-Sep-13 17:56N 51°07' E 001°19'0 0.0
2019-Sep-13 17:29N 51°07' E 001°19'0 0.0
2019-Sep-13 17:00N 51°07' E 001°19'0 0.0
2019-Sep-13 16:30N 51°07' E 001°19'0 0.0
2019-Sep-13 16:00N 51°07' E 001°19'0 0.0
2019-Sep-13 15:30N 51°07' E 001°19'0 0.0
2019-Sep-13 15:00N 51°07' E 001°19'0 0.0
2019-Sep-13 14:30N 51°07' E 001°19'0 0.0
2019-Sep-13 14:00N 51°07' E 001°19'0 0.0
2019-Sep-13 13:30N 51°07' E 001°19'0 0.0
2019-Sep-13 13:00N 51°07' E 001°19'0 0.0
2019-Sep-13 12:30N 51°07' E 001°19'0 0.0
2019-Sep-13 12:00N 51°07' E 001°19'0 0.0
2019-Sep-13 11:30N 51°07' E 001°19'0 0.0
2019-Sep-13 11:00N 51°07' E 001°19'0 0.0
2019-Sep-13 10:30N 51°07' E 001°19'0 0.0
2019-Sep-13 10:00N 51°07' E 001°19'0 0.0
2019-Sep-13 09:30N 51°07' E 001°19'0 0.0
2019-Sep-13 09:00N 51°07' E 001°19'0 0.0
2019-Sep-13 08:30N 51°07' E 001°19'0 0.0
2019-Sep-13 08:00N 51°07' E 001°19'0 0.0
2019-Sep-13 07:30N 51°07' E 001°19'2 3.9
2019-Sep-13 06:53N 51°08' E 001°23'3 9.1
2019-Sep-13 06:30N 51°08' E 001°28'4 8.5
2019-Sep-13 06:00N 51°08' E 001°35'5 9.8
2019-Sep-13 05:30N 51°11' E 001°41'5 9.6
2019-Sep-13 05:00N 51°15' E 001°46'510.9
2019-Sep-13 04:30N 51°20' E 001°49'611.3
2019-Sep-13 04:00N 51°25' E 001°53'611.2
2019-Sep-13 03:30N 51°30' E 001°58'511.0
2019-Sep-13 03:00N 51°34' E 002°04'611.0
2019-Sep-13 02:30N 51°38' E 002°11'1110.7
2019-Sep-13 01:30N 51°46' E 002°22'510.9
2019-Sep-13 01:00N 51°50' E 002°28'1810.4
2019-Sep-12 23:14N 52°04' E 002°47'311.0
2019-Sep-12 22:59N 52°06' E 002°50'611.4
2019-Sep-12 22:29N 52°10' E 002°56'611.3
2019-Sep-12 21:58N 52°15' E 003°02'611.8
2019-Sep-12 21:30N 52°18' E 003°10'612.0
2019-Sep-12 21:00N 52°22' E 003°17'612.2
2019-Sep-12 20:30N 52°26' E 003°25'612.1
2019-Sep-12 20:00N 52°30' E 003°33'611.8
2019-Sep-12 19:30N 52°31' E 003°42'611.4
2019-Sep-12 19:00N 52°32' E 003°51'611.3
2019-Sep-12 18:30N 52°31' E 004°00'611.4
2019-Sep-12 18:00N 52°31' E 004°10'611.4
2019-Sep-12 17:30N 52°30' E 004°19'510.0
2019-Sep-12 17:00N 52°29' E 004°27'5 9.2
2019-Sep-12 16:31N 52°28' E 004°34'0 0.3
2019-Sep-12 15:59N 52°28' E 004°34'0 0.0
2019-Sep-12 15:29N 52°28' E 004°34'0 0.0
2019-Sep-12 14:59N 52°28' E 004°34'0 0.0
2019-Sep-12 14:28N 52°28' E 004°34'0 0.0
2019-Sep-12 13:58N 52°28' E 004°34'0 0.0
2019-Sep-12 13:28N 52°28' E 004°34'0 0.0
2019-Sep-12 12:58N 52°28' E 004°34'0 0.0
2019-Sep-12 12:28N 52°28' E 004°34'0 0.0
2019-Sep-12 12:00N 52°28' E 004°34'0 0.0
2019-Sep-12 11:30N 52°28' E 004°34'0 0.0
2019-Sep-12 10:57N 52°28' E 004°34'0 0.0
2019-Sep-12 10:30N 52°28' E 004°34'0 0.0
2019-Sep-12 09:59N 52°28' E 004°34'0 0.0
2019-Sep-12 09:29N 52°28' E 004°34'0 0.0
2019-Sep-12 08:59N 52°28' E 004°34'0 0.0
2019-Sep-12 08:29N 52°28' E 004°34'0 0.0
2019-Sep-12 07:59N 52°28' E 004°34'0 0.0
2019-Sep-12 07:28N 52°28' E 004°34'0 0.0
2019-Sep-12 06:58N 52°28' E 004°34'0 0.0
2019-Sep-12 06:25N 52°28' E 004°34'0 0.2
2019-Sep-12 06:01N 52°28' E 004°34'2 4.8
2019-Sep-12 05:31N 52°28' E 004°30'510.5
2019-Sep-12 05:01N 52°29' E 004°22'713.8
2019-Sep-12 04:30N 52°29' E 004°10'917.8
2019-Sep-12 04:01N 52°37' E 004°04'1517.8
2019-Sep-12 03:10N 52°52' E 003°58'317.7
2019-Sep-12 02:59N 52°55' E 003°59'917.1
2019-Sep-12 02:28N 53°01' E 004°09'817.5
2019-Sep-12 02:01N 53°07' E 004°19'917.2
2019-Sep-12 01:30N 53°14' E 004°26'2118.5
2019-Sep-12 00:21N 53°34' E 004°39'24419.4
2019-Sep-11 11:46N 57°10' E 008°02'718.0
2019-Sep-11 11:23N 57°15' E 008°10'3316.7
2019-Sep-11 09:26N 57°33' E 009°00'817.5
2019-Sep-11 09:00N 57°37' E 009°12'2718.0
2019-Sep-11 07:31N 57°50' E 009°56'1019.4
2019-Sep-11 07:00N 57°49' E 010°15'918.3
2019-Sep-11 06:31N 57°49' E 010°32'917.3
2019-Sep-11 06:01N 57°47' E 010°47'917.9
2019-Sep-11 05:31N 57°42' E 011°01'917.7
2019-Sep-11 05:00N 57°36' E 011°13'917.8
2019-Sep-11 04:31N 57°29' E 011°24'917.9
2019-Sep-11 04:01N 57°21' E 011°31'918.3
2019-Sep-11 03:31N 57°12' E 011°36'917.7
2019-Sep-11 03:00N 57°04' E 011°42'9816.5
2019-Sep-10 21:02N 55°29' E 010°56'117.3
2019-Sep-10 21:00N 55°28' E 010°57'816.9
2019-Sep-10 20:31N 55°21' E 011°03'817.0
2019-Sep-10 20:01N 55°12' E 011°06'918.2
2019-Sep-10 19:31N 55°03' E 011°02'816.9
2019-Sep-10 19:01N 54°56' E 010°56'815.0
2019-Sep-10 18:30N 54°49' E 010°52'816.0
2019-Sep-10 18:01N 54°41' E 010°53'918.2
2019-Sep-10 17:30N 54°36' E 010°40'918.1
2019-Sep-10 17:00N 54°31' E 010°26'612.7
2019-Sep-10 16:30N 54°28' E 010°17'611.7
2019-Sep-10 16:00N 54°23' E 010°12'4 7.7
2019-Sep-10 15:30N 54°20' E 010°09'0 0.6
2019-Sep-10 14:58N 54°20' E 010°09'0 0.0
2019-Sep-10 14:28N 54°20' E 010°09'0 0.0
2019-Sep-10 13:58N 54°20' E 010°09'0 0.0
2019-Sep-10 13:28N 54°20' E 010°09'0 0.0
2019-Sep-10 12:58N 54°20' E 010°09'0 0.0
2019-Sep-10 12:30N 54°20' E 010°09'0 0.0
2019-Sep-10 12:00N 54°20' E 010°09'0 0.0
2019-Sep-10 11:30N 54°20' E 010°09'0 0.0
2019-Sep-10 10:57N 54°20' E 010°09'0 0.0
2019-Sep-10 10:29N 54°20' E 010°09'0 0.0
2019-Sep-10 09:59N 54°20' E 010°09'0 0.0
2019-Sep-10 09:29N 54°20' E 010°09'0 0.0
2019-Sep-10 08:59N 54°20' E 010°09'0 0.0
2019-Sep-10 08:29N 54°20' E 010°09'0 0.0
2019-Sep-10 07:58N 54°20' E 010°09'0 0.0
2019-Sep-10 07:28N 54°20' E 010°09'0 0.0
2019-Sep-10 06:58N 54°20' E 010°09'0 0.0
2019-Sep-10 06:28N 54°20' E 010°09'0 0.0
2019-Sep-10 06:00N 54°20' E 010°09'0 0.7
2019-Sep-10 05:30N 54°20' E 010°09'3 6.3
2019-Sep-10 05:00N 54°23' E 010°11'510.5
2019-Sep-10 04:30N 54°28' E 010°15'611.5
2019-Sep-10 04:00N 54°31' E 010°23'714.8
2019-Sep-10 03:31N 54°34' E 010°34'815.0
2019-Sep-10 03:00N 54°39' E 010°45'714.4
2019-Sep-10 02:30N 54°45' E 010°51'815.1
2019-Sep-10 02:01N 54°52' E 010°52'714.3
2019-Sep-10 01:31N 54°58' E 010°59'714.6
2019-Sep-10 01:01N 55°06' E 011°02'714.6
2019-Sep-10 00:31N 55°12' E 011°06'815.2
2019-Sep-10 00:00N 55°20' E 011°02'3214.4
2019-Sep-09 21:49N 55°51' E 010°50'7117.9
2019-Sep-09 17:50N 56°55' E 011°46'619.3
2019-Sep-09 17:30N 57°01' E 011°43'1019.3
2019-Sep-09 17:00N 57°10' E 011°36'1019.6
2019-Sep-09 16:30N 57°19' E 011°30'1019.0
2019-Sep-09 16:00N 57°27' E 011°22'1019.1
2019-Sep-09 15:30N 57°35' E 011°11'1019.2
2019-Sep-09 15:00N 57°41' E 010°57'918.6
2019-Sep-09 14:30N 57°47' E 010°45'917.7
2019-Sep-09 14:00N 57°48' E 010°28'918.1
2019-Sep-09 13:30N 57°48' E 010°11'918.2
2019-Sep-09 13:00N 57°49' E 009°54'1018.8
2019-Sep-09 12:30N 57°47' E 009°36'918.8
2019-Sep-09 12:00N 57°46' E 009°19'918.8
2019-Sep-09 11:30N 57°46' E 009°02'919.0
2019-Sep-09 11:00N 57°44' E 008°44'1019.1
2019-Sep-09 10:30N 57°43' E 008°26'1019.2
2019-Sep-09 10:00N 57°42' E 008°08'1019.2
2019-Sep-09 09:30N 57°41' E 007°50'918.3
2019-Sep-09 09:00N 57°41' E 007°33'918.3
2019-Sep-09 08:29N 57°41' E 007°16'918.5
2019-Sep-09 08:00N 57°42' E 006°59'918.5
2019-Sep-09 07:30N 57°42' E 006°41'917.6
2019-Sep-09 07:00N 57°46' E 006°26'918.4
2019-Sep-09 06:30N 57°52' E 006°13'918.4
2019-Sep-09 06:00N 57°58' E 005°60'918.4
2019-Sep-09 05:30N 58°04' E 005°47'918.3
2019-Sep-09 04:59N 58°10' E 005°34'918.2
2019-Sep-09 04:31N 58°16' E 005°21'918.3
2019-Sep-09 04:00N 58°23' E 005°09'918.4
2019-Sep-09 03:30N 58°29' E 004°57'918.8
2019-Sep-09 03:00N 58°36' E 004°45'1919.0
2019-Sep-09 02:00N 58°49' E 004°18'919.0
2019-Sep-09 01:30N 58°57' E 004°06'1019.2
2019-Sep-09 01:00N 59°06' E 004°03'1019.5
2019-Sep-09 00:30N 59°16' E 004°03'1019.3
2019-Sep-09 00:00N 59°25' E 004°03'1019.3
2019-Sep-08 23:30N 59°35' E 004°02'919.1
2019-Sep-08 23:00N 59°45' E 004°02'1019.4
2019-Sep-08 22:30N 59°54' E 004°00'1019.6
2019-Sep-08 22:00N 60°04' E 003°60'1019.7
2019-Sep-08 21:30N 60°14' E 004°02'918.9
2019-Sep-08 21:00N 60°23' E 004°05'1019.5
2019-Sep-08 20:30N 60°31' E 004°17'1019.0
2019-Sep-08 20:00N 60°39' E 004°28'917.0
2019-Sep-08 19:30N 60°45' E 004°40'612.2
2019-Sep-08 19:00N 60°41' E 004°50'918.8
2019-Sep-08 18:30N 60°32' E 004°57'816.9
2019-Sep-08 18:00N 60°25' E 005°05'510.3
2019-Sep-08 17:29N 60°24' E 005°16'2 2.9
2019-Sep-08 16:58N 60°24' E 005°19'0 0.0
2019-Sep-08 16:28N 60°24' E 005°19'0 0.0
2019-Sep-08 15:58N 60°24' E 005°19'0 0.0
2019-Sep-08 15:28N 60°24' E 005°19'0 0.0
2019-Sep-08 14:58N 60°24' E 005°19'0 0.0
2019-Sep-08 14:30N 60°24' E 005°19'0 0.0
2019-Sep-08 14:00N 60°24' E 005°19'0 0.0
2019-Sep-08 13:30N 60°24' E 005°19'0 0.0
2019-Sep-08 13:00N 60°24' E 005°19'0 0.0
2019-Sep-08 12:29N 60°24' E 005°19'0 0.0
2019-Sep-08 11:59N 60°24' E 005°19'0 0.0
2019-Sep-08 11:26N 60°24' E 005°19'0 0.0
2019-Sep-08 10:59N 60°24' E 005°19'0 0.0
2019-Sep-08 10:29N 60°24' E 005°19'0 0.0
2019-Sep-08 09:58N 60°24' E 005°19'0 0.0
2019-Sep-08 09:28N 60°24' E 005°19'0 0.0
2019-Sep-08 08:58N 60°24' E 005°19'0 0.0
2019-Sep-08 08:28N 60°24' E 005°19'0 0.0
2019-Sep-08 08:00N 60°24' E 005°19'0 0.0
2019-Sep-08 07:30N 60°24' E 005°19'0 0.0
2019-Sep-08 07:00N 60°24' E 005°19'1 2.2
2019-Sep-08 06:30N 60°24' E 005°17'5 9.4
2019-Sep-08 06:00N 60°24' E 005°07'713.6
2019-Sep-08 05:29N 60°30' E 004°59'918.7
2019-Sep-08 05:00N 60°38' E 004°52'815.2
2019-Sep-08 04:30N 60°44' E 004°43'612.0
2019-Sep-08 04:00N 60°46' E 004°31'714.4
2019-Sep-08 03:30N 60°52' E 004°24'714.6
2019-Sep-08 03:00N 60°59' E 004°19'714.7
2019-Sep-08 02:30N 61°06' E 004°19'815.4
2019-Sep-08 02:00N 61°14' E 004°19'815.7
2019-Sep-08 01:30N 61°22' E 004°20'815.7
2019-Sep-08 01:00N 61°30' E 004°21'815.4
2019-Sep-08 00:30N 61°38' E 004°21'714.8
2019-Sep-08 00:00N 61°45' E 004°25'815.1
2019-Sep-07 23:30N 61°52' E 004°31'815.0
2019-Sep-07 23:00N 61°59' E 004°37'715.3
2019-Sep-07 22:30N 62°06' E 004°43'815.9
2019-Sep-07 22:00N 62°13' E 004°51'815.7
2019-Sep-07 21:30N 62°19' E 005°02'815.9
2019-Sep-07 21:00N 62°23' E 005°16'816.4
2019-Sep-07 20:30N 62°28' E 005°31'715.0
2019-Sep-07 20:00N 62°29' E 005°47'713.6
2019-Sep-07 19:30N 62°26' E 005°60'815.6
2019-Sep-07 19:00N 62°23' E 006°16'918.9
2019-Sep-07 18:30N 62°26' E 006°35'917.5
2019-Sep-07 18:00N 62°25' E 006°54'917.1
2019-Sep-07 17:30N 62°18' E 007°01'816.6
2019-Sep-07 17:00N 62°09' E 006°60'4 8.6
2019-Sep-07 16:30N 62°06' E 007°05'3 6.2
2019-Sep-07 16:00N 62°06' E 007°12'0 0.0
2019-Sep-07 14:09N 62°06' E 007°12'0 0.0
2019-Sep-07 14:00N 62°06' E 007°12'0 0.0
2019-Sep-07 13:30N 62°06' E 007°12'0 0.0
2019-Sep-07 12:59N 62°06' E 007°12'0 0.0
2019-Sep-07 12:30N 62°06' E 007°12'0 0.0
2019-Sep-07 12:00N 62°06' E 007°12'0 0.0
2019-Sep-07 11:30N 62°06' E 007°12'0 0.0
2019-Sep-07 11:00N 62°06' E 007°12'0 0.0
2019-Sep-07 10:29N 62°06' E 007°12'0 0.0
2019-Sep-07 09:59N 62°06' E 007°12'0 0.0
2019-Sep-07 09:29N 62°06' E 007°12'0 0.0
2019-Sep-07 08:59N 62°06' E 007°12'0 0.1
2019-Sep-07 08:30N 62°06' E 007°12'2 4.1
2019-Sep-07 08:00N 62°07' E 007°08'  
Track history (hours):
 
Tides and Currents Weather Stations Pressure Air Temp Water Temp Dewpoint Dewpoint Depression Visibility Wind Speed Wind Dir Waves Ship Positions

Costa Pacifica

Last reported at 2019-Sep-17 07:58 UTC. Time now 2019-Sep-17 08:19 UTC.
Position N 41°11' W 008°42'.

Length 290 m; draft 8.3 m.

Type: Ship. MMSI: 247258100.

Date/timePositionNaut miles runAvg speedWind from/ knotsBaromVisibWave heightAir tempDewpointWater temp
2019-Sep-17 07:58N 41°11' W 008°42'0 0.0
2019-Sep-17 07:28N 41°11' W 008°42'0 0.0
2019-Sep-17 07:01N 41°11' W 008°42'0 0.3
2019-Sep-17 06:30N 41°11' W 008°42'2 4.0
2019-Sep-17 06:00N 41°10' W 008°44'137 5.4
2019-Sep-16 04:24N 43°27' W 008°30'5317.6
2019-Sep-16 01:23N 44°18' W 008°13'11120.0
2019-Sep-15 19:50N 46°03' W 007°20'619.8
2019-Sep-15 19:30N 46°09' W 007°17'816.2
2019-Sep-15 19:00N 46°17' W 007°13'816.2
2019-Sep-15 18:30N 46°25' W 007°09'816.3
2019-Sep-15 18:00N 46°32' W 007°05'816.4
2019-Sep-15 17:30N 46°40' W 007°01'816.0
2019-Sep-15 16:58N 46°48' W 006°57'815.7
2019-Sep-15 16:28N 46°55' W 006°53'715.9
2019-Sep-15 16:00N 47°02' W 006°49'816.1
2019-Sep-15 15:30N 47°10' W 006°45'815.9
2019-Sep-15 15:00N 47°17' W 006°41'815.2
2019-Sep-15 14:30N 47°24' W 006°36'714.9
2019-Sep-15 14:00N 47°31' W 006°31'714.7
2019-Sep-15 13:30N 47°38' W 006°29'714.4
2019-Sep-15 13:01N 47°45' W 006°26'918.7
2019-Sep-15 12:31N 47°54' W 006°22'1019.5
2019-Sep-15 12:00N 48°03' W 006°17'1019.9
2019-Sep-15 11:30N 48°13' W 006°12'1020.6
2019-Sep-15 11:01N 48°22' W 006°07'1020.8
2019-Sep-15 10:31N 48°32' W 006°02'1121.1
2019-Sep-15 10:01N 48°42' W 005°56'1121.3
2019-Sep-15 09:31N 48°51' W 005°48'1020.3
2019-Sep-15 09:01N 48°57' W 005°35'1020.4
2019-Sep-15 08:30N 49°02' W 005°22'1019.8
2019-Sep-15 08:00N 49°07' W 005°09'917.2
2019-Sep-15 07:30N 49°11' W 004°57'815.4
2019-Sep-15 07:01N 49°15' W 004°47'715.0
2019-Sep-15 06:31N 49°19' W 004°37'714.7
2019-Sep-15 06:01N 49°23' W 004°28'714.5
2019-Sep-15 05:30N 49°26' W 004°18'714.9
2019-Sep-15 05:00N 49°30' W 004°08'815.1
2019-Sep-15 04:30N 49°34' W 003°58'815.5
2019-Sep-15 04:00N 49°38' W 003°48'816.1
2019-Sep-15 03:30N 49°43' W 003°38'816.7
2019-Sep-15 03:00N 49°47' W 003°27'917.5
2019-Sep-15 02:30N 49°51' W 003°14'918.1
2019-Sep-15 02:01N 49°55' W 003°02'918.5
2019-Sep-15 01:30N 49°59' W 002°49'918.6
2019-Sep-15 01:00N 50°02' W 002°35'917.6
2019-Sep-15 00:30N 50°03' W 002°22'917.5
2019-Sep-15 00:00N 50°00' W 002°08'816.8
2019-Sep-14 23:30N 49°58' W 001°56'815.9
2019-Sep-14 23:01N 49°56' W 001°44'815.3
2019-Sep-14 22:30N 49°54' W 001°33'714.6
2019-Sep-14 22:00N 49°51' W 001°22'713.9
2019-Sep-14 21:30N 49°48' W 001°12'713.3
2019-Sep-14 21:00N 49°46' W 001°02'713.6
2019-Sep-14 20:30N 49°44' W 000°53'713.6
2019-Sep-14 20:00N 49°41' W 000°43'713.8
2019-Sep-14 19:30N 49°39' W 000°33'714.1
2019-Sep-14 19:00N 49°35' W 000°24'714.7
2019-Sep-14 18:30N 49°32' W 000°13'713.3
2019-Sep-14 18:00N 49°31' W 000°03'612.3
2019-Sep-14 17:31N 49°29' E 000°06'0 0.6
2019-Sep-14 16:58N 49°29' E 000°06'0 0.0
2019-Sep-14 16:28N 49°29' E 000°06'0 0.0
2019-Sep-14 15:58N 49°29' E 000°06'0 0.0
2019-Sep-14 15:28N 49°29' E 000°06'0 0.0
2019-Sep-14 15:00N 49°29' E 000°06'0 0.0
2019-Sep-14 14:30N 49°29' E 000°06'0 0.0
2019-Sep-14 14:00N 49°29' E 000°06'0 0.0
2019-Sep-14 13:30N 49°29' E 000°06'0 0.0
2019-Sep-14 13:00N 49°29' E 000°06'0 0.0
2019-Sep-14 12:29N 49°29' E 000°06'0 0.0
2019-Sep-14 11:59N 49°29' E 000°06'0 0.0
2019-Sep-14 11:29N 49°29' E 000°06'0 0.0
2019-Sep-14 10:59N 49°29' E 000°06'0 0.0
2019-Sep-14 10:28N 49°29' E 000°06'0 0.0
2019-Sep-14 09:58N 49°29' E 000°06'0 0.0
2019-Sep-14 09:28N 49°29' E 000°06'0 0.0
2019-Sep-14 08:58N 49°29' E 000°06'0 0.0
2019-Sep-14 08:28N 49°29' E 000°06'0 0.0
2019-Sep-14 08:00N 49°29' E 000°06'0 0.0
2019-Sep-14 07:30N 49°29' E 000°06'0 0.0
2019-Sep-14 07:00N 49°29' E 000°06'0 0.0
2019-Sep-14 06:30N 49°29' E 000°06'0 0.0
2019-Sep-14 06:00N 49°29' E 000°06'1 1.0
2019-Sep-14 05:31N 49°29' E 000°07'3 6.4
2019-Sep-14 05:00N 49°30' E 000°02'612.6
2019-Sep-14 04:30N 49°31' W 000°07'611.6
2019-Sep-14 04:00N 49°36' W 000°12'715.0
2019-Sep-14 03:30N 49°43' W 000°15'714.5
2019-Sep-14 03:00N 49°51' W 000°13'815.0
2019-Sep-14 02:30N 49°58' W 000°10'714.8
2019-Sep-14 02:01N 50°05' W 000°09'713.8
2019-Sep-14 01:30N 50°12' W 000°12'713.8
2019-Sep-14 01:00N 50°19' W 000°13'815.2
2019-Sep-14 00:30N 50°25' W 000°06'815.2
2019-Sep-14 00:00N 50°29' E 000°05'815.4
2019-Sep-13 23:30N 50°31' E 000°16'814.7
2019-Sep-13 22:59N 50°34' E 000°27'714.3
2019-Sep-13 22:28N 50°38' E 000°37'914.0
2019-Sep-13 21:51N 50°43' E 000°48'614.1
2019-Sep-13 21:24N 50°47' E 000°56'614.3
2019-Sep-13 21:00N 50°51' E 001°02'815.2
2019-Sep-13 20:30N 50°56' E 001°11'816.1
2019-Sep-13 20:00N 51°02' E 001°21'510.4
2019-Sep-13 19:30N 51°07' E 001°20'0 0.6
2019-Sep-13 19:00N 51°07' E 001°19'0 0.0
2019-Sep-13 18:30N 51°07' E 001°19'0 0.0
2019-Sep-13 17:56N 51°07' E 001°19'0 0.0
2019-Sep-13 17:29N 51°07' E 001°19'0 0.0
2019-Sep-13 17:00N 51°07' E 001°19'0 0.0
2019-Sep-13 16:30N 51°07' E 001°19'0 0.0
2019-Sep-13 16:00N 51°07' E 001°19'0 0.0
2019-Sep-13 15:30N 51°07' E 001°19'0 0.0
2019-Sep-13 15:00N 51°07' E 001°19'0 0.0
2019-Sep-13 14:30N 51°07' E 001°19'0 0.0
2019-Sep-13 14:00N 51°07' E 001°19'0 0.0
2019-Sep-13 13:30N 51°07' E 001°19'0 0.0
2019-Sep-13 13:00N 51°07' E 001°19'0 0.0
2019-Sep-13 12:30N 51°07' E 001°19'0 0.0
2019-Sep-13 12:00N 51°07' E 001°19'0 0.0
2019-Sep-13 11:30N 51°07' E 001°19'0 0.0
2019-Sep-13 11:00N 51°07' E 001°19'0 0.0
2019-Sep-13 10:30N 51°07' E 001°19'0 0.0
2019-Sep-13 10:00N 51°07' E 001°19'0 0.0
2019-Sep-13 09:30N 51°07' E 001°19'0 0.0
2019-Sep-13 09:00N 51°07' E 001°19'0 0.0
2019-Sep-13 08:30N 51°07' E 001°19'0 0.0
2019-Sep-13 08:00N 51°07' E 001°19'0 0.0
2019-Sep-13 07:30N 51°07' E 001°19'2 3.9
2019-Sep-13 06:53N 51°08' E 001°23'3 9.1
2019-Sep-13 06:30N 51°08' E 001°28'4 8.5
2019-Sep-13 06:00N 51°08' E 001°35'5 9.8
2019-Sep-13 05:30N 51°11' E 001°41'5 9.6
2019-Sep-13 05:00N 51°15' E 001°46'510.9
2019-Sep-13 04:30N 51°20' E 001°49'611.3
2019-Sep-13 04:00N 51°25' E 001°53'611.2
2019-Sep-13 03:30N 51°30' E 001°58'511.0
2019-Sep-13 03:00N 51°34' E 002°04'611.0
2019-Sep-13 02:30N 51°38' E 002°11'1110.7
2019-Sep-13 01:30N 51°46' E 002°22'510.9
2019-Sep-13 01:00N 51°50' E 002°28'1810.4
2019-Sep-12 23:14N 52°04' E 002°47'311.0
2019-Sep-12 22:59N 52°06' E 002°50'611.4
2019-Sep-12 22:29N 52°10' E 002°56'611.3
2019-Sep-12 21:58N 52°15' E 003°02'611.8
2019-Sep-12 21:30N 52°18' E 003°10'612.0
2019-Sep-12 21:00N 52°22' E 003°17'612.2
2019-Sep-12 20:30N 52°26' E 003°25'612.1
2019-Sep-12 20:00N 52°30' E 003°33'611.8
2019-Sep-12 19:30N 52°31' E 003°42'611.4
2019-Sep-12 19:00N 52°32' E 003°51'611.3
2019-Sep-12 18:30N 52°31' E 004°00'611.4
2019-Sep-12 18:00N 52°31' E 004°10'611.4
2019-Sep-12 17:30N 52°30' E 004°19'510.0
2019-Sep-12 17:00N 52°29' E 004°27'5 9.2
2019-Sep-12 16:31N 52°28' E 004°34'0 0.3
2019-Sep-12 15:59N 52°28' E 004°34'0 0.0
2019-Sep-12 15:29N 52°28' E 004°34'0 0.0
2019-Sep-12 14:59N 52°28' E 004°34'0 0.0
2019-Sep-12 14:28N 52°28' E 004°34'0 0.0
2019-Sep-12 13:58N 52°28' E 004°34'0 0.0
2019-Sep-12 13:28N 52°28' E 004°34'0 0.0
2019-Sep-12 12:58N 52°28' E 004°34'0 0.0
2019-Sep-12 12:28N 52°28' E 004°34'0 0.0
2019-Sep-12 12:00N 52°28' E 004°34'0 0.0
2019-Sep-12 11:30N 52°28' E 004°34'0 0.0
2019-Sep-12 10:57N 52°28' E 004°34'0 0.0
2019-Sep-12 10:30N 52°28' E 004°34'0 0.0
2019-Sep-12 09:59N 52°28' E 004°34'0 0.0
2019-Sep-12 09:29N 52°28' E 004°34'0 0.0
2019-Sep-12 08:59N 52°28' E 004°34'0 0.0
2019-Sep-12 08:29N 52°28' E 004°34'0 0.0
2019-Sep-12 07:59N 52°28' E 004°34'0 0.0
2019-Sep-12 07:28N 52°28' E 004°34'0 0.0
2019-Sep-12 06:58N 52°28' E 004°34'0 0.0
2019-Sep-12 06:25N 52°28' E 004°34'0 0.2
2019-Sep-12 06:01N 52°28' E 004°34'2 4.8
2019-Sep-12 05:31N 52°28' E 004°30'510.5
2019-Sep-12 05:01N 52°29' E 004°22'713.8
2019-Sep-12 04:30N 52°29' E 004°10'917.8
2019-Sep-12 04:01N 52°37' E 004°04'1517.8
2019-Sep-12 03:10N 52°52' E 003°58'317.7
2019-Sep-12 02:59N 52°55' E 003°59'917.1
2019-Sep-12 02:28N 53°01' E 004°09'817.5
2019-Sep-12 02:01N 53°07' E 004°19'917.2
2019-Sep-12 01:30N 53°14' E 004°26'2118.5
2019-Sep-12 00:21N 53°34' E 004°39'24419.4
2019-Sep-11 11:46N 57°10' E 008°02'718.0
2019-Sep-11 11:23N 57°15' E 008°10'3316.7
2019-Sep-11 09:26N 57°33' E 009°00'817.5
2019-Sep-11 09:00N 57°37' E 009°12'2718.0
2019-Sep-11 07:31N 57°50' E 009°56'1019.4
2019-Sep-11 07:00N 57°49' E 010°15'918.3
2019-Sep-11 06:31N 57°49' E 010°32'917.3
2019-Sep-11 06:01N 57°47' E 010°47'917.9
2019-Sep-11 05:31N 57°42' E 011°01'917.7
2019-Sep-11 05:00N 57°36' E 011°13'917.8
2019-Sep-11 04:31N 57°29' E 011°24'917.9
2019-Sep-11 04:01N 57°21' E 011°31'918.3
2019-Sep-11 03:31N 57°12' E 011°36'917.7
2019-Sep-11 03:00N 57°04' E 011°42'9816.5
2019-Sep-10 21:02N 55°29' E 010°56'117.3
2019-Sep-10 21:00N 55°28' E 010°57'816.9
2019-Sep-10 20:31N 55°21' E 011°03'817.0
2019-Sep-10 20:01N 55°12' E 011°06'918.2
2019-Sep-10 19:31N 55°03' E 011°02'816.9
2019-Sep-10 19:01N 54°56' E 010°56'815.0
2019-Sep-10 18:30N 54°49' E 010°52'816.0
2019-Sep-10 18:01N 54°41' E 010°53'918.2
2019-Sep-10 17:30N 54°36' E 010°40'918.1
2019-Sep-10 17:00N 54°31' E 010°26'612.7
2019-Sep-10 16:30N 54°28' E 010°17'611.7
2019-Sep-10 16:00N 54°23' E 010°12'4 7.7
2019-Sep-10 15:30N 54°20' E 010°09'0 0.6
2019-Sep-10 14:58N 54°20' E 010°09'0 0.0
2019-Sep-10 14:28N 54°20' E 010°09'0 0.0
2019-Sep-10 13:58N 54°20' E 010°09'0 0.0
2019-Sep-10 13:28N 54°20' E 010°09'0 0.0
2019-Sep-10 12:58N 54°20' E 010°09'0 0.0
2019-Sep-10 12:30N 54°20' E 010°09'0 0.0
2019-Sep-10 12:00N 54°20' E 010°09'0 0.0
2019-Sep-10 11:30N 54°20' E 010°09'0 0.0
2019-Sep-10 10:57N 54°20' E 010°09'0 0.0
2019-Sep-10 10:29N 54°20' E 010°09'0 0.0
2019-Sep-10 09:59N 54°20' E 010°09'0 0.0
2019-Sep-10 09:29N 54°20' E 010°09'0 0.0
2019-Sep-10 08:59N 54°20' E 010°09'0 0.0
2019-Sep-10 08:29N 54°20' E 010°09'0 0.0
2019-Sep-10 07:58N 54°20' E 010°09'0 0.0
2019-Sep-10 07:28N 54°20' E 010°09'0 0.0
2019-Sep-10 06:58N 54°20' E 010°09'0 0.0
2019-Sep-10 06:28N 54°20' E 010°09'0 0.0
2019-Sep-10 06:00N 54°20' E 010°09'0 0.7
2019-Sep-10 05:30N 54°20' E 010°09'3 6.3
2019-Sep-10 05:00N 54°23' E 010°11'510.5
2019-Sep-10 04:30N 54°28' E 010°15'611.5
2019-Sep-10 04:00N 54°31' E 010°23'714.8
2019-Sep-10 03:31N 54°34' E 010°34'815.0
2019-Sep-10 03:00N 54°39' E 010°45'714.4
2019-Sep-10 02:30N 54°45' E 010°51'815.1
2019-Sep-10 02:01N 54°52' E 010°52'714.3
2019-Sep-10 01:31N 54°58' E 010°59'714.6
2019-Sep-10 01:01N 55°06' E 011°02'714.6
2019-Sep-10 00:31N 55°12' E 011°06'815.2
2019-Sep-10 00:00N 55°20' E 011°02'3214.4
2019-Sep-09 21:49N 55°51' E 010°50'7117.9
2019-Sep-09 17:50N 56°55' E 011°46'619.3
2019-Sep-09 17:30N 57°01' E 011°43'1019.3
2019-Sep-09 17:00N 57°10' E 011°36'1019.6
2019-Sep-09 16:30N 57°19' E 011°30'1019.0
2019-Sep-09 16:00N 57°27' E 011°22'1019.1
2019-Sep-09 15:30N 57°35' E 011°11'1019.2
2019-Sep-09 15:00N 57°41' E 010°57'918.6
2019-Sep-09 14:30N 57°47' E 010°45'917.7
2019-Sep-09 14:00N 57°48' E 010°28'918.1
2019-Sep-09 13:30N 57°48' E 010°11'918.2
2019-Sep-09 13:00N 57°49' E 009°54'1018.8
2019-Sep-09 12:30N 57°47' E 009°36'918.8
2019-Sep-09 12:00N 57°46' E 009°19'918.8
2019-Sep-09 11:30N 57°46' E 009°02'919.0
2019-Sep-09 11:00N 57°44' E 008°44'1019.1
2019-Sep-09 10:30N 57°43' E 008°26'1019.2
2019-Sep-09 10:00N 57°42' E 008°08'1019.2
2019-Sep-09 09:30N 57°41' E 007°50'918.3
2019-Sep-09 09:00N 57°41' E 007°33'918.3
2019-Sep-09 08:29N 57°41' E 007°16'918.5
2019-Sep-09 08:00N 57°42' E 006°59'918.5
2019-Sep-09 07:30N 57°42' E 006°41'917.6
2019-Sep-09 07:00N 57°46' E 006°26'918.4
2019-Sep-09 06:30N 57°52' E 006°13'918.4
2019-Sep-09 06:00N 57°58' E 005°60'918.4
2019-Sep-09 05:30N 58°04' E 005°47'918.3
2019-Sep-09 04:59N 58°10' E 005°34'918.2
2019-Sep-09 04:31N 58°16' E 005°21'918.3
2019-Sep-09 04:00N 58°23' E 005°09'918.4
2019-Sep-09 03:30N 58°29' E 004°57'918.8
2019-Sep-09 03:00N 58°36' E 004°45'1919.0
2019-Sep-09 02:00N 58°49' E 004°18'919.0
2019-Sep-09 01:30N 58°57' E 004°06'1019.2
2019-Sep-09 01:00N 59°06' E 004°03'1019.5
2019-Sep-09 00:30N 59°16' E 004°03'1019.3
2019-Sep-09 00:00N 59°25' E 004°03'1019.3
2019-Sep-08 23:30N 59°35' E 004°02'919.1
2019-Sep-08 23:00N 59°45' E 004°02'1019.4
2019-Sep-08 22:30N 59°54' E 004°00'1019.6
2019-Sep-08 22:00N 60°04' E 003°60'1019.7
2019-Sep-08 21:30N 60°14' E 004°02'918.9
2019-Sep-08 21:00N 60°23' E 004°05'1019.5
2019-Sep-08 20:30N 60°31' E 004°17'1019.0
2019-Sep-08 20:00N 60°39' E 004°28'917.0
2019-Sep-08 19:30N 60°45' E 004°40'612.2
2019-Sep-08 19:00N 60°41' E 004°50'918.8
2019-Sep-08 18:30N 60°32' E 004°57'816.9
2019-Sep-08 18:00N 60°25' E 005°05'510.3
2019-Sep-08 17:29N 60°24' E 005°16'2 2.9
2019-Sep-08 16:58N 60°24' E 005°19'0 0.0
2019-Sep-08 16:28N 60°24' E 005°19'0 0.0
2019-Sep-08 15:58N 60°24' E 005°19'0 0.0
2019-Sep-08 15:28N 60°24' E 005°19'0 0.0
2019-Sep-08 14:58N 60°24' E 005°19'0 0.0
2019-Sep-08 14:30N 60°24' E 005°19'0 0.0
2019-Sep-08 14:00N 60°24' E 005°19'0 0.0
2019-Sep-08 13:30N 60°24' E 005°19'0 0.0
2019-Sep-08 13:00N 60°24' E 005°19'0 0.0
2019-Sep-08 12:29N 60°24' E 005°19'0 0.0
2019-Sep-08 11:59N 60°24' E 005°19'0 0.0
2019-Sep-08 11:26N 60°24' E 005°19'0 0.0
2019-Sep-08 10:59N 60°24' E 005°19'0 0.0
2019-Sep-08 10:29N 60°24' E 005°19'0 0.0
2019-Sep-08 09:58N 60°24' E 005°19'0 0.0
2019-Sep-08 09:28N 60°24' E 005°19'0 0.0
2019-Sep-08 08:58N 60°24' E 005°19'0 0.0
2019-Sep-08 08:28N 60°24' E 005°19'0 0.0
2019-Sep-08 08:00N 60°24' E 005°19'0 0.0
2019-Sep-08 07:30N 60°24' E 005°19'0 0.0
2019-Sep-08 07:00N 60°24' E 005°19'1 2.2
2019-Sep-08 06:30N 60°24' E 005°17'5 9.4
2019-Sep-08 06:00N 60°24' E 005°07'713.6
2019-Sep-08 05:29N 60°30' E 004°59'918.7
2019-Sep-08 05:00N 60°38' E 004°52'815.2
2019-Sep-08 04:30N 60°44' E 004°43'612.0
2019-Sep-08 04:00N 60°46' E 004°31'714.4
2019-Sep-08 03:30N 60°52' E 004°24'714.6
2019-Sep-08 03:00N 60°59' E 004°19'714.7
2019-Sep-08 02:30N 61°06' E 004°19'815.4
2019-Sep-08 02:00N 61°14' E 004°19'815.7
2019-Sep-08 01:30N 61°22' E 004°20'815.7
2019-Sep-08 01:00N 61°30' E 004°21'815.4
2019-Sep-08 00:30N 61°38' E 004°21'714.8
2019-Sep-08 00:00N 61°45' E 004°25'815.1
2019-Sep-07 23:30N 61°52' E 004°31'815.0
2019-Sep-07 23:00N 61°59' E 004°37'715.3
2019-Sep-07 22:30N 62°06' E 004°43'815.9
2019-Sep-07 22:00N 62°13' E 004°51'815.7
2019-Sep-07 21:30N 62°19' E 005°02'815.9
2019-Sep-07 21:00N 62°23' E 005°16'816.4
2019-Sep-07 20:30N 62°28' E 005°31'715.0
2019-Sep-07 20:00N 62°29' E 005°47'713.6
2019-Sep-07 19:30N 62°26' E 005°60'815.6
2019-Sep-07 19:00N 62°23' E 006°16'918.9
2019-Sep-07 18:30N 62°26' E 006°35'917.5
2019-Sep-07 18:00N 62°25' E 006°54'917.1
2019-Sep-07 17:30N 62°18' E 007°01'816.6
2019-Sep-07 17:00N 62°09' E 006°60'4 8.6
2019-Sep-07 16:30N 62°06' E 007°05'3 6.2
2019-Sep-07 16:00N 62°06' E 007°12'0 0.0
2019-Sep-07 14:09N 62°06' E 007°12'0 0.0
2019-Sep-07 14:00N 62°06' E 007°12'0 0.0
2019-Sep-07 13:30N 62°06' E 007°12'0 0.0
2019-Sep-07 12:59N 62°06' E 007°12'0 0.0
2019-Sep-07 12:30N 62°06' E 007°12'0 0.0
2019-Sep-07 12:00N 62°06' E 007°12'0 0.0
2019-Sep-07 11:30N 62°06' E 007°12'0 0.0
2019-Sep-07 11:00N 62°06' E 007°12'0 0.0
2019-Sep-07 10:29N 62°06' E 007°12'0 0.0
2019-Sep-07 09:59N 62°06' E 007°12'0 0.0
2019-Sep-07 09:29N 62°06' E 007°12'0 0.0
2019-Sep-07 08:59N 62°06' E 007°12'0 0.1
2019-Sep-07 08:30N 62°06' E 007°12'2 4.1
2019-Sep-07 08:00N 62°07' E 007°08'  

Dump ship's entire track history